sensor_id;sensor_type;location;lat;lon;timestamp;P1;durP1;ratioP1;P2;durP2;ratioP2
29730;SDS011;16639;51.488;0.152;2023-03-31T00:00:50;22.70;;;5.90;;
29730;SDS011;16639;51.488;0.152;2023-03-31T00:03:19;30.33;;;4.60;;
29730;SDS011;16639;51.488;0.152;2023-03-31T00:05:54;27.10;;;4.65;;
29730;SDS011;16639;51.488;0.152;2023-03-31T00:08:25;21.02;;;4.60;;
29730;SDS011;16639;51.488;0.152;2023-03-31T00:10:59;19.75;;;4.18;;
29730;SDS011;16639;51.488;0.152;2023-03-31T00:13:28;21.15;;;4.60;;
29730;SDS011;16639;51.488;0.152;2023-03-31T00:15:57;21.55;;;4.28;;
29730;SDS011;16639;51.488;0.152;2023-03-31T00:18:26;23.95;;;4.55;;
29730;SDS011;16639;51.488;0.152;2023-03-31T00:20:54;17.98;;;5.00;;
29730;SDS011;16639;51.488;0.152;2023-03-31T00:23:28;17.02;;;4.43;;
29730;SDS011;16639;51.488;0.152;2023-03-31T00:25:55;15.48;;;4.65;;
29730;SDS011;16639;51.488;0.152;2023-03-31T00:28:23;16.75;;;4.03;;
29730;SDS011;16639;51.488;0.152;2023-03-31T00:30:50;21.80;;;4.90;;
29730;SDS011;16639;51.488;0.152;2023-03-31T00:33:18;29.02;;;5.20;;
29730;SDS011;16639;51.488;0.152;2023-03-31T00:35:49;23.70;;;4.25;;
29730;SDS011;16639;51.488;0.152;2023-03-31T00:38:17;25.60;;;6.25;;
29730;SDS011;16639;51.488;0.152;2023-03-31T00:40:47;22.83;;;4.53;;
29730;SDS011;16639;51.488;0.152;2023-03-31T00:43:29;21.55;;;5.15;;
29730;SDS011;16639;51.488;0.152;2023-03-31T00:48:49;19.65;;;4.03;;
29730;SDS011;16639;51.488;0.152;2023-03-31T00:51:19;26.75;;;5.00;;
29730;SDS011;16639;51.488;0.152;2023-03-31T00:53:51;25.42;;;5.13;;
29730;SDS011;16639;51.488;0.152;2023-03-31T00:56:25;20.37;;;4.13;;
29730;SDS011;16639;51.488;0.152;2023-03-31T00:58:56;19.90;;;4.72;;
29730;SDS011;16639;51.488;0.152;2023-03-31T01:01:28;16.83;;;3.92;;
29730;SDS011;16639;51.488;0.152;2023-03-31T01:03:56;20.48;;;4.47;;
29730;SDS011;16639;51.488;0.152;2023-03-31T01:06:25;16.95;;;3.92;;
29730;SDS011;16639;51.488;0.152;2023-03-31T01:08:56;16.45;;;3.97;;
29730;SDS011;16639;51.488;0.152;2023-03-31T01:11:25;19.77;;;4.22;;
29730;SDS011;16639;51.488;0.152;2023-03-31T01:13:53;28.52;;;4.38;;
29730;SDS011;16639;51.488;0.152;2023-03-31T01:16:22;16.27;;;4.15;;
29730;SDS011;16639;51.488;0.152;2023-03-31T01:18:51;18.98;;;4.13;;
29730;SDS011;16639;51.488;0.152;2023-03-31T01:24:30;16.92;;;4.30;;
29730;SDS011;16639;51.488;0.152;2023-03-31T01:27:36;14.02;;;3.78;;
29730;SDS011;16639;51.488;0.152;2023-03-31T01:33:28;17.90;;;4.00;;
29730;SDS011;16639;51.488;0.152;2023-03-31T01:45:00;11.50;;;2.42;;
29730;SDS011;16639;51.488;0.152;2023-03-31T01:47:47;14.20;;;3.42;;
29730;SDS011;16639;51.488;0.152;2023-03-31T01:50:26;13.80;;;3.28;;
29730;SDS011;16639;51.488;0.152;2023-03-31T01:53:04;7.75;;;2.92;;
29730;SDS011;16639;51.488;0.152;2023-03-31T01:58:41;12.15;;;2.72;;
29730;SDS011;16639;51.488;0.152;2023-03-31T02:01:22;14.10;;;3.22;;
29730;SDS011;16639;51.488;0.152;2023-03-31T02:04:13;15.68;;;3.80;;
29730;SDS011;16639;51.488;0.152;2023-03-31T02:06:45;14.90;;;4.18;;
29730;SDS011;16639;51.488;0.152;2023-03-31T02:09:19;22.10;;;4.20;;
29730;SDS011;16639;51.488;0.152;2023-03-31T02:11:50;19.75;;;4.18;;
29730;SDS011;16639;51.488;0.152;2023-03-31T02:14:21;16.58;;;3.70;;
29730;SDS011;16639;51.488;0.152;2023-03-31T02:16:53;16.88;;;4.13;;
29730;SDS011;16639;51.488;0.152;2023-03-31T02:19:32;15.63;;;4.25;;
29730;SDS011;16639;51.488;0.152;2023-03-31T02:22:06;17.48;;;4.20;;
29730;SDS011;16639;51.488;0.152;2023-03-31T02:24:35;23.08;;;4.03;;
29730;SDS011;16639;51.488;0.152;2023-03-31T02:27:07;15.55;;;4.10;;
29730;SDS011;16639;51.488;0.152;2023-03-31T02:29:40;15.40;;;4.30;;
29730;SDS011;16639;51.488;0.152;2023-03-31T02:34:35;23.55;;;4.50;;
29730;SDS011;16639;51.488;0.152;2023-03-31T02:37:02;16.63;;;4.20;;
29730;SDS011;16639;51.488;0.152;2023-03-31T02:39:32;21.38;;;4.78;;
29730;SDS011;16639;51.488;0.152;2023-03-31T02:42:02;20.58;;;4.28;;
29730;SDS011;16639;51.488;0.152;2023-03-31T02:44:34;21.58;;;5.18;;
29730;SDS011;16639;51.488;0.152;2023-03-31T02:47:06;21.20;;;6.40;;
29730;SDS011;16639;51.488;0.152;2023-03-31T02:49:39;17.30;;;4.38;;
29730;SDS011;16639;51.488;0.152;2023-03-31T03:12:05;23.23;;;5.30;;
29730;SDS011;16639;51.488;0.152;2023-03-31T03:14:43;45.78;;;7.72;;
29730;SDS011;16639;51.488;0.152;2023-03-31T03:20:03;31.60;;;6.40;;
29730;SDS011;16639;51.488;0.152;2023-03-31T03:22:35;36.97;;;7.40;;
29730;SDS011;16639;51.488;0.152;2023-03-31T03:25:04;45.10;;;9.35;;
29730;SDS011;16639;51.488;0.152;2023-03-31T03:27:36;46.33;;;9.52;;
29730;SDS011;16639;51.488;0.152;2023-03-31T03:30:04;44.97;;;8.68;;
29730;SDS011;16639;51.488;0.152;2023-03-31T03:32:34;53.65;;;8.93;;
29730;SDS011;16639;51.488;0.152;2023-03-31T03:35:02;37.38;;;7.60;;
29730;SDS011;16639;51.488;0.152;2023-03-31T03:37:31;46.25;;;7.90;;
29730;SDS011;16639;51.488;0.152;2023-03-31T03:39:59;47.13;;;7.93;;
29730;SDS011;16639;51.488;0.152;2023-03-31T03:42:27;46.72;;;9.18;;
29730;SDS011;16639;51.488;0.152;2023-03-31T03:44:54;37.88;;;7.07;;
29730;SDS011;16639;51.488;0.152;2023-03-31T03:47:22;34.03;;;7.05;;
29730;SDS011;16639;51.488;0.152;2023-03-31T03:49:49;43.28;;;7.95;;
29730;SDS011;16639;51.488;0.152;2023-03-31T03:52:17;26.55;;;6.55;;
29730;SDS011;16639;51.488;0.152;2023-03-31T03:54:44;36.22;;;7.82;;
29730;SDS011;16639;51.488;0.152;2023-03-31T03:57:11;36.70;;;7.25;;
29730;SDS011;16639;51.488;0.152;2023-03-31T03:59:39;41.10;;;8.55;;
29730;SDS011;16639;51.488;0.152;2023-03-31T04:02:06;30.23;;;6.63;;
29730;SDS011;16639;51.488;0.152;2023-03-31T04:04:34;29.48;;;6.75;;
29730;SDS011;16639;51.488;0.152;2023-03-31T04:07:02;36.00;;;7.32;;
29730;SDS011;16639;51.488;0.152;2023-03-31T04:09:29;26.25;;;5.65;;
29730;SDS011;16639;51.488;0.152;2023-03-31T04:11:57;35.35;;;6.57;;
29730;SDS011;16639;51.488;0.152;2023-03-31T04:14:24;36.70;;;6.00;;
29730;SDS011;16639;51.488;0.152;2023-03-31T04:16:52;26.85;;;7.07;;
29730;SDS011;16639;51.488;0.152;2023-03-31T04:19:22;29.35;;;5.90;;
29730;SDS011;16639;51.488;0.152;2023-03-31T04:21:51;29.98;;;6.70;;
29730;SDS011;16639;51.488;0.152;2023-03-31T04:24:24;40.75;;;8.70;;
29730;SDS011;16639;51.488;0.152;2023-03-31T04:26:58;39.50;;;8.73;;
29730;SDS011;16639;51.488;0.152;2023-03-31T04:29:26;36.38;;;7.22;;
29730;SDS011;16639;51.488;0.152;2023-03-31T04:31:54;32.72;;;7.78;;
29730;SDS011;16639;51.488;0.152;2023-03-31T04:34:25;39.90;;;8.20;;
29730;SDS011;16639;51.488;0.152;2023-03-31T04:37:01;30.90;;;6.47;;
29730;SDS011;16639;51.488;0.152;2023-03-31T04:39:29;25.25;;;6.50;;
29730;SDS011;16639;51.488;0.152;2023-03-31T04:41:57;37.03;;;7.75;;
29730;SDS011;16639;51.488;0.152;2023-03-31T04:44:26;27.00;;;5.55;;
29730;SDS011;16639;51.488;0.152;2023-03-31T04:46:53;20.77;;;5.25;;
29730;SDS011;16639;51.488;0.152;2023-03-31T04:49:22;27.25;;;5.55;;
29730;SDS011;16639;51.488;0.152;2023-03-31T04:51:49;18.70;;;4.97;;
29730;SDS011;16639;51.488;0.152;2023-03-31T04:54:17;24.38;;;4.63;;
29730;SDS011;16639;51.488;0.152;2023-03-31T04:56:44;20.38;;;4.70;;
29730;SDS011;16639;51.488;0.152;2023-03-31T04:59:11;26.98;;;5.25;;
29730;SDS011;16639;51.488;0.152;2023-03-31T05:01:39;31.55;;;6.18;;
29730;SDS011;16639;51.488;0.152;2023-03-31T05:04:10;24.92;;;4.57;;
29730;SDS011;16639;51.488;0.152;2023-03-31T05:06:38;21.48;;;4.90;;
29730;SDS011;16639;51.488;0.152;2023-03-31T05:09:06;14.10;;;3.50;;
29730;SDS011;16639;51.488;0.152;2023-03-31T05:11:35;25.08;;;3.67;;
29730;SDS011;16639;51.488;0.152;2023-03-31T05:14:04;9.82;;;3.20;;
29730;SDS011;16639;51.488;0.152;2023-03-31T05:16:31;18.13;;;4.15;;
29730;SDS011;16639;51.488;0.152;2023-03-31T05:19:00;13.52;;;3.70;;
29730;SDS011;16639;51.488;0.152;2023-03-31T05:21:27;9.63;;;3.35;;
29730;SDS011;16639;51.488;0.152;2023-03-31T05:23:56;12.23;;;2.92;;
29730;SDS011;16639;51.488;0.152;2023-03-31T05:26:24;22.48;;;3.58;;
29730;SDS011;16639;51.488;0.152;2023-03-31T05:28:52;14.15;;;2.90;;
29730;SDS011;16639;51.488;0.152;2023-03-31T05:31:20;19.85;;;3.17;;
29730;SDS011;16639;51.488;0.152;2023-03-31T05:33:47;22.27;;;3.53;;
29730;SDS011;16639;51.488;0.152;2023-03-31T05:36:16;14.13;;;3.38;;
29730;SDS011;16639;51.488;0.152;2023-03-31T05:38:44;16.10;;;3.75;;
29730;SDS011;16639;51.488;0.152;2023-03-31T05:41:13;8.82;;;3.33;;
29730;SDS011;16639;51.488;0.152;2023-03-31T05:43:42;13.38;;;2.88;;
29730;SDS011;16639;51.488;0.152;2023-03-31T05:46:10;14.90;;;2.88;;
29730;SDS011;16639;51.488;0.152;2023-03-31T05:48:38;18.77;;;2.63;;
29730;SDS011;16639;51.488;0.152;2023-03-31T05:51:05;10.48;;;3.55;;
29730;SDS011;16639;51.488;0.152;2023-03-31T05:53:33;11.50;;;3.20;;
29730;SDS011;16639;51.488;0.152;2023-03-31T05:56:01;14.10;;;3.47;;
29730;SDS011;16639;51.488;0.152;2023-03-31T05:58:32;19.13;;;5.00;;
29730;SDS011;16639;51.488;0.152;2023-03-31T06:01:09;20.30;;;3.78;;
29730;SDS011;16639;51.488;0.152;2023-03-31T06:03:39;21.95;;;4.72;;
29730;SDS011;16639;51.488;0.152;2023-03-31T06:06:08;23.70;;;4.82;;
29730;SDS011;16639;51.488;0.152;2023-03-31T06:08:36;23.75;;;4.53;;
29730;SDS011;16639;51.488;0.152;2023-03-31T06:11:04;31.10;;;5.13;;
29730;SDS011;16639;51.488;0.152;2023-03-31T06:13:34;20.40;;;3.78;;
29730;SDS011;16639;51.488;0.152;2023-03-31T06:16:02;22.00;;;4.47;;
29730;SDS011;16639;51.488;0.152;2023-03-31T06:18:30;24.73;;;4.90;;
29730;SDS011;16639;51.488;0.152;2023-03-31T06:20:59;21.42;;;4.22;;
29730;SDS011;16639;51.488;0.152;2023-03-31T06:23:27;22.85;;;4.63;;
29730;SDS011;16639;51.488;0.152;2023-03-31T06:25:57;18.92;;;4.43;;
29730;SDS011;16639;51.488;0.152;2023-03-31T06:28:29;17.20;;;4.85;;
29730;SDS011;16639;51.488;0.152;2023-03-31T06:31:00;21.58;;;5.25;;
29730;SDS011;16639;51.488;0.152;2023-03-31T06:33:34;15.88;;;4.35;;
29730;SDS011;16639;51.488;0.152;2023-03-31T06:36:02;18.95;;;4.45;;
29730;SDS011;16639;51.488;0.152;2023-03-31T06:38:32;12.45;;;4.45;;
29730;SDS011;16639;51.488;0.152;2023-03-31T06:41:00;18.45;;;4.97;;
29730;SDS011;16639;51.488;0.152;2023-03-31T06:43:28;19.83;;;4.35;;
29730;SDS011;16639;51.488;0.152;2023-03-31T06:45:55;20.85;;;4.25;;
29730;SDS011;16639;51.488;0.152;2023-03-31T06:48:23;14.80;;;3.58;;
29730;SDS011;16639;51.488;0.152;2023-03-31T06:50:52;17.73;;;3.58;;
29730;SDS011;16639;51.488;0.152;2023-03-31T06:53:20;19.55;;;3.80;;
29730;SDS011;16639;51.488;0.152;2023-03-31T06:55:48;31.50;;;4.30;;
29730;SDS011;16639;51.488;0.152;2023-03-31T06:58:15;18.33;;;4.40;;
29730;SDS011;16639;51.488;0.152;2023-03-31T07:00:43;19.50;;;4.47;;
29730;SDS011;16639;51.488;0.152;2023-03-31T07:03:14;35.85;;;6.07;;
29730;SDS011;16639;51.488;0.152;2023-03-31T07:05:48;28.85;;;5.25;;
29730;SDS011;16639;51.488;0.152;2023-03-31T07:08:20;20.33;;;4.28;;
29730;SDS011;16639;51.488;0.152;2023-03-31T07:10:49;35.78;;;6.43;;
29730;SDS011;16639;51.488;0.152;2023-03-31T07:13:21;32.05;;;5.57;;
29730;SDS011;16639;51.488;0.152;2023-03-31T07:15:49;33.50;;;7.00;;
29730;SDS011;16639;51.488;0.152;2023-03-31T07:18:17;24.25;;;5.07;;
29730;SDS011;16639;51.488;0.152;2023-03-31T07:20:48;25.85;;;5.38;;
29730;SDS011;16639;51.488;0.152;2023-03-31T07:23:16;37.35;;;6.25;;
29730;SDS011;16639;51.488;0.152;2023-03-31T07:25:45;22.27;;;5.63;;
29730;SDS011;16639;51.488;0.152;2023-03-31T07:28:12;29.25;;;7.03;;
29730;SDS011;16639;51.488;0.152;2023-03-31T07:30:40;27.55;;;5.53;;
29730;SDS011;16639;51.488;0.152;2023-03-31T07:33:07;21.27;;;5.03;;
29730;SDS011;16639;51.488;0.152;2023-03-31T07:35:38;26.58;;;5.82;;
29730;SDS011;16639;51.488;0.152;2023-03-31T07:38:07;37.88;;;8.00;;
29730;SDS011;16639;51.488;0.152;2023-03-31T07:40:38;28.58;;;6.50;;
29730;SDS011;16639;51.488;0.152;2023-03-31T07:43:06;46.55;;;7.18;;
29730;SDS011;16639;51.488;0.152;2023-03-31T07:45:33;27.90;;;5.43;;
29730;SDS011;16639;51.488;0.152;2023-03-31T07:48:01;27.70;;;7.13;;
29730;SDS011;16639;51.488;0.152;2023-03-31T07:50:29;32.03;;;6.20;;
29730;SDS011;16639;51.488;0.152;2023-03-31T07:52:56;25.17;;;6.28;;
29730;SDS011;16639;51.488;0.152;2023-03-31T07:55:24;22.55;;;4.90;;
29730;SDS011;16639;51.488;0.152;2023-03-31T07:57:53;38.55;;;6.07;;
29730;SDS011;16639;51.488;0.152;2023-03-31T08:00:20;26.75;;;5.88;;
29730;SDS011;16639;51.488;0.152;2023-03-31T08:02:48;30.20;;;5.78;;
29730;SDS011;16639;51.488;0.152;2023-03-31T08:05:16;25.33;;;5.75;;
29730;SDS011;16639;51.488;0.152;2023-03-31T08:07:45;42.88;;;7.30;;
29730;SDS011;16639;51.488;0.152;2023-03-31T08:10:18;24.85;;;5.60;;
29730;SDS011;16639;51.488;0.152;2023-03-31T08:12:48;30.17;;;6.45;;
29730;SDS011;16639;51.488;0.152;2023-03-31T08:15:16;27.35;;;6.78;;
29730;SDS011;16639;51.488;0.152;2023-03-31T08:17:43;37.35;;;8.65;;
29730;SDS011;16639;51.488;0.152;2023-03-31T08:20:11;38.55;;;7.72;;
29730;SDS011;16639;51.488;0.152;2023-03-31T08:22:39;34.63;;;7.85;;
29730;SDS011;16639;51.488;0.152;2023-03-31T08:25:07;37.38;;;7.38;;
29730;SDS011;16639;51.488;0.152;2023-03-31T08:27:35;35.20;;;7.97;;
29730;SDS011;16639;51.488;0.152;2023-03-31T08:30:06;37.05;;;7.22;;
29730;SDS011;16639;51.488;0.152;2023-03-31T08:32:37;32.50;;;6.28;;
29730;SDS011;16639;51.488;0.152;2023-03-31T08:35:05;43.03;;;7.38;;
29730;SDS011;16639;51.488;0.152;2023-03-31T08:37:33;37.75;;;7.20;;
29730;SDS011;16639;51.488;0.152;2023-03-31T08:40:06;35.78;;;6.82;;
29730;SDS011;16639;51.488;0.152;2023-03-31T08:42:45;39.75;;;7.18;;
29730;SDS011;16639;51.488;0.152;2023-03-31T08:47:54;29.27;;;8.20;;
29730;SDS011;16639;51.488;0.152;2023-03-31T08:50:27;30.33;;;6.28;;
29730;SDS011;16639;51.488;0.152;2023-03-31T08:55:42;33.30;;;6.63;;
29730;SDS011;16639;51.488;0.152;2023-03-31T09:00:53;25.50;;;5.05;;
29730;SDS011;16639;51.488;0.152;2023-03-31T09:12:17;33.97;;;6.40;;
29730;SDS011;16639;51.488;0.152;2023-03-31T09:15:08;23.30;;;6.40;;
29730;SDS011;16639;51.488;0.152;2023-03-31T09:17:45;32.40;;;6.72;;
29730;SDS011;16639;51.488;0.152;2023-03-31T09:22:50;25.27;;;6.22;;
29730;SDS011;16639;51.488;0.152;2023-03-31T09:25:25;31.65;;;6.10;;
29730;SDS011;16639;51.488;0.152;2023-03-31T09:27:54;27.73;;;6.95;;
29730;SDS011;16639;51.488;0.152;2023-03-31T09:30:26;21.80;;;5.72;;
29730;SDS011;16639;51.488;0.152;2023-03-31T09:33:09;26.13;;;6.50;;
29730;SDS011;16639;51.488;0.152;2023-03-31T09:35:37;22.55;;;6.15;;
29730;SDS011;16639;51.488;0.152;2023-03-31T09:38:05;31.33;;;6.10;;
29730;SDS011;16639;51.488;0.152;2023-03-31T09:40:35;29.25;;;5.70;;
29730;SDS011;16639;51.488;0.152;2023-03-31T09:43:04;28.85;;;6.43;;
29730;SDS011;16639;51.488;0.152;2023-03-31T09:45:33;25.15;;;5.38;;
29730;SDS011;16639;51.488;0.152;2023-03-31T09:48:06;36.58;;;5.80;;
29730;SDS011;16639;51.488;0.152;2023-03-31T09:50:41;28.80;;;5.28;;
29730;SDS011;16639;51.488;0.152;2023-03-31T09:53:22;33.03;;;6.55;;
29730;SDS011;16639;51.488;0.152;2023-03-31T09:56:11;30.38;;;6.05;;
29730;SDS011;16639;51.488;0.152;2023-03-31T09:58:40;30.27;;;7.10;;
29730;SDS011;16639;51.488;0.152;2023-03-31T10:01:10;22.77;;;5.45;;
29730;SDS011;16639;51.488;0.152;2023-03-31T10:03:44;35.20;;;5.97;;
29730;SDS011;16639;51.488;0.152;2023-03-31T10:06:18;31.45;;;6.78;;
29730;SDS011;16639;51.488;0.152;2023-03-31T10:11:23;34.17;;;6.15;;
29730;SDS011;16639;51.488;0.152;2023-03-31T10:14:01;19.30;;;5.00;;
29730;SDS011;16639;51.488;0.152;2023-03-31T10:16:32;27.10;;;5.70;;
29730;SDS011;16639;51.488;0.152;2023-03-31T10:19:11;32.50;;;5.88;;
29730;SDS011;16639;51.488;0.152;2023-03-31T10:21:45;30.33;;;5.82;;
29730;SDS011;16639;51.488;0.152;2023-03-31T10:24:17;27.50;;;6.30;;
29730;SDS011;16639;51.488;0.152;2023-03-31T10:26:49;35.85;;;7.10;;
29730;SDS011;16639;51.488;0.152;2023-03-31T10:29:23;27.25;;;5.97;;
29730;SDS011;16639;51.488;0.152;2023-03-31T10:32:01;36.38;;;6.75;;
29730;SDS011;16639;51.488;0.152;2023-03-31T10:34:31;35.75;;;6.30;;
29730;SDS011;16639;51.488;0.152;2023-03-31T10:37:10;22.10;;;5.50;;
29730;SDS011;16639;51.488;0.152;2023-03-31T10:39:43;29.45;;;5.30;;
29730;SDS011;16639;51.488;0.152;2023-03-31T10:42:22;30.83;;;5.43;;
29730;SDS011;16639;51.488;0.152;2023-03-31T10:44:57;30.55;;;6.20;;
29730;SDS011;16639;51.488;0.152;2023-03-31T10:48:03;19.23;;;4.60;;
29730;SDS011;16639;51.488;0.152;2023-03-31T10:50:33;20.05;;;4.57;;
29730;SDS011;16639;51.488;0.152;2023-03-31T10:53:03;28.33;;;5.03;;
29730;SDS011;16639;51.488;0.152;2023-03-31T10:55:38;26.75;;;5.20;;
29730;SDS011;16639;51.488;0.152;2023-03-31T11:06:47;18.38;;;3.85;;
29730;SDS011;16639;51.488;0.152;2023-03-31T11:09:31;16.42;;;3.45;;
29730;SDS011;16639;51.488;0.152;2023-03-31T11:12:23;15.80;;;3.72;;
29730;SDS011;16639;51.488;0.152;2023-03-31T11:20:20;10.88;;;3.47;;
29730;SDS011;16639;51.488;0.152;2023-03-31T11:31:03;8.90;;;2.38;;
29730;SDS011;16639;51.488;0.152;2023-03-31T11:39:24;2.05;;;1.13;;
29730;SDS011;16639;51.488;0.152;2023-03-31T11:42:28;1.25;;;1.05;;
29730;SDS011;16639;51.488;0.152;2023-03-31T11:45:24;4.65;;;1.33;;
29730;SDS011;16639;51.488;0.152;2023-03-31T11:47:57;3.83;;;1.00;;
29730;SDS011;16639;51.488;0.152;2023-03-31T11:50:34;5.07;;;2.25;;
29730;SDS011;16639;51.488;0.152;2023-03-31T11:53:14;14.52;;;5.95;;
29730;SDS011;16639;51.488;0.152;2023-03-31T11:55:44;3.63;;;2.53;;
29730;SDS011;16639;51.488;0.152;2023-03-31T11:58:22;3.38;;;1.08;;
29730;SDS011;16639;51.488;0.152;2023-03-31T12:01:22;2.80;;;1.75;;
29730;SDS011;16639;51.488;0.152;2023-03-31T12:10:02;1.52;;;0.90;;
29730;SDS011;16639;51.488;0.152;2023-03-31T12:12:44;3.35;;;1.00;;
29730;SDS011;16639;51.488;0.152;2023-03-31T12:15:26;1.67;;;1.20;;
29730;SDS011;16639;51.488;0.152;2023-03-31T12:18:09;1.92;;;1.40;;
29730;SDS011;16639;51.488;0.152;2023-03-31T12:20:39;2.70;;;0.93;;
29730;SDS011;16639;51.488;0.152;2023-03-31T12:23:11;2.50;;;1.00;;
29730;SDS011;16639;51.488;0.152;2023-03-31T12:25:51;2.80;;;1.60;;
29730;SDS011;16639;51.488;0.152;2023-03-31T12:28:28;1.63;;;1.20;;
29730;SDS011;16639;51.488;0.152;2023-03-31T12:31:00;7.13;;;1.20;;
29730;SDS011;16639;51.488;0.152;2023-03-31T12:33:32;1.67;;;1.10;;
29730;SDS011;16639;51.488;0.152;2023-03-31T12:41:28;2.28;;;1.40;;
29730;SDS011;16639;51.488;0.152;2023-03-31T13:16:39;4.05;;;1.67;;
29730;SDS011;16639;51.488;0.152;2023-03-31T13:19:08;5.10;;;1.50;;
29730;SDS011;16639;51.488;0.152;2023-03-31T13:21:51;6.30;;;2.17;;
29730;SDS011;16639;51.488;0.152;2023-03-31T13:24:24;1.50;;;1.10;;
29730;SDS011;16639;51.488;0.152;2023-03-31T13:26:53;10.27;;;1.73;;
29730;SDS011;16639;51.488;0.152;2023-03-31T13:29:37;3.53;;;1.58;;
29730;SDS011;16639;51.488;0.152;2023-03-31T13:32:20;7.47;;;1.52;;
29730;SDS011;16639;51.488;0.152;2023-03-31T13:43:33;5.68;;;1.27;;
29730;SDS011;16639;51.488;0.152;2023-03-31T13:52:11;4.80;;;2.30;;
29730;SDS011;16639;51.488;0.152;2023-03-31T14:03:57;6.53;;;1.80;;
29730;SDS011;16639;51.488;0.152;2023-03-31T14:06:43;9.05;;;1.85;;
29730;SDS011;16639;51.488;0.152;2023-03-31T14:09:22;9.13;;;2.58;;
29730;SDS011;16639;51.488;0.152;2023-03-31T14:11:52;6.50;;;2.50;;
29730;SDS011;16639;51.488;0.152;2023-03-31T14:14:20;5.10;;;2.92;;
29730;SDS011;16639;51.488;0.152;2023-03-31T14:16:54;7.30;;;1.92;;
29730;SDS011;16639;51.488;0.152;2023-03-31T14:25:11;2.92;;;1.77;;
29730;SDS011;16639;51.488;0.152;2023-03-31T14:30:40;2.60;;;1.58;;
29730;SDS011;16639;51.488;0.152;2023-03-31T14:33:50;2.50;;;1.42;;
29730;SDS011;16639;51.488;0.152;2023-03-31T14:36:57;9.00;;;1.52;;
29730;SDS011;16639;51.488;0.152;2023-03-31T14:39:28;5.28;;;1.63;;
29730;SDS011;16639;51.488;0.152;2023-03-31T14:42:14;2.03;;;1.13;;
29730;SDS011;16639;51.488;0.152;2023-03-31T14:44:44;7.03;;;1.40;;
29730;SDS011;16639;51.488;0.152;2023-03-31T14:47:15;3.55;;;1.58;;
29730;SDS011;16639;51.488;0.152;2023-03-31T14:52:30;1.77;;;1.42;;
29730;SDS011;16639;51.488;0.152;2023-03-31T14:54:59;3.00;;;1.77;;
29730;SDS011;16639;51.488;0.152;2023-03-31T14:57:31;2.25;;;1.50;;
29730;SDS011;16639;51.488;0.152;2023-03-31T15:00:02;6.72;;;1.70;;
29730;SDS011;16639;51.488;0.152;2023-03-31T15:02:36;3.35;;;1.73;;
29730;SDS011;16639;51.488;0.152;2023-03-31T15:05:08;4.40;;;1.90;;
29730;SDS011;16639;51.488;0.152;2023-03-31T15:07:46;3.17;;;2.03;;
29730;SDS011;16639;51.488;0.152;2023-03-31T15:10:18;3.67;;;1.90;;
29730;SDS011;16639;51.488;0.152;2023-03-31T15:12:48;2.58;;;2.30;;
29730;SDS011;16639;51.488;0.152;2023-03-31T15:15:18;2.15;;;1.55;;
29730;SDS011;16639;51.488;0.152;2023-03-31T15:17:46;4.88;;;1.80;;
29730;SDS011;16639;51.488;0.152;2023-03-31T15:20:30;4.45;;;1.83;;
29730;SDS011;16639;51.488;0.152;2023-03-31T15:23:04;3.05;;;1.60;;
29730;SDS011;16639;51.488;0.152;2023-03-31T15:25:53;2.88;;;0.98;;
29730;SDS011;16639;51.488;0.152;2023-03-31T15:28:24;1.30;;;1.02;;
29730;SDS011;16639;51.488;0.152;2023-03-31T15:30:57;4.88;;;1.23;;
29730;SDS011;16639;51.488;0.152;2023-03-31T15:33:38;1.65;;;1.33;;
29730;SDS011;16639;51.488;0.152;2023-03-31T15:36:09;2.03;;;1.30;;
29730;SDS011;16639;51.488;0.152;2023-03-31T15:38:38;4.35;;;1.60;;
29730;SDS011;16639;51.488;0.152;2023-03-31T15:41:10;1.98;;;1.33;;
29730;SDS011;16639;51.488;0.152;2023-03-31T15:43:49;1.30;;;1.20;;
29730;SDS011;16639;51.488;0.152;2023-03-31T15:46:48;4.15;;;1.63;;
29730;SDS011;16639;51.488;0.152;2023-03-31T15:49:25;1.60;;;1.10;;
29730;SDS011;16639;51.488;0.152;2023-03-31T15:51:54;1.95;;;1.52;;
29730;SDS011;16639;51.488;0.152;2023-03-31T15:54:35;1.15;;;0.95;;
29730;SDS011;16639;51.488;0.152;2023-03-31T15:57:06;2.97;;;0.95;;
29730;SDS011;16639;51.488;0.152;2023-03-31T16:02:27;1.75;;;1.23;;
29730;SDS011;16639;51.488;0.152;2023-03-31T16:05:05;2.38;;;1.00;;
29730;SDS011;16639;51.488;0.152;2023-03-31T16:07:39;2.13;;;0.70;;
29730;SDS011;16639;51.488;0.152;2023-03-31T16:10:17;1.67;;;0.90;;
29730;SDS011;16639;51.488;0.152;2023-03-31T16:12:53;0.70;;;0.70;;
29730;SDS011;16639;51.488;0.152;2023-03-31T16:15:29;2.17;;;1.05;;
29730;SDS011;16639;51.488;0.152;2023-03-31T16:18:32;0.60;;;0.60;;
29730;SDS011;16639;51.488;0.152;2023-03-31T16:20:57;0.80;;;0.80;;
29730;SDS011;16639;51.488;0.152;2023-03-31T16:23:31;1.80;;;1.00;;
29730;SDS011;16639;51.488;0.152;2023-03-31T16:26:12;1.05;;;0.80;;
29730;SDS011;16639;51.488;0.152;2023-03-31T16:28:50;1.27;;;0.90;;
29730;SDS011;16639;51.488;0.152;2023-03-31T16:34:32;2.60;;;1.08;;
29730;SDS011;16639;51.488;0.152;2023-03-31T16:36:59;1.00;;;0.75;;
29730;SDS011;16639;51.488;0.152;2023-03-31T16:39:35;1.52;;;0.90;;
29730;SDS011;16639;51.488;0.152;2023-03-31T16:42:03;1.85;;;1.05;;
29730;SDS011;16639;51.488;0.152;2023-03-31T16:44:30;1.05;;;0.90;;
29730;SDS011;16639;51.488;0.152;2023-03-31T16:46:58;1.30;;;0.68;;
29730;SDS011;16639;51.488;0.152;2023-03-31T16:49:27;1.13;;;0.80;;
29730;SDS011;16639;51.488;0.152;2023-03-31T16:51:55;1.05;;;0.95;;
29730;SDS011;16639;51.488;0.152;2023-03-31T16:54:22;1.63;;;1.02;;
29730;SDS011;16639;51.488;0.152;2023-03-31T16:56:51;1.08;;;1.00;;
29730;SDS011;16639;51.488;0.152;2023-03-31T16:59:18;1.85;;;0.80;;
29730;SDS011;16639;51.488;0.152;2023-03-31T17:01:46;0.80;;;0.80;;
29730;SDS011;16639;51.488;0.152;2023-03-31T17:04:13;0.70;;;0.70;;
29730;SDS011;16639;51.488;0.152;2023-03-31T17:06:41;2.80;;;1.20;;
29730;SDS011;16639;51.488;0.152;2023-03-31T17:09:09;1.85;;;1.20;;
29730;SDS011;16639;51.488;0.152;2023-03-31T17:11:36;2.35;;;1.45;;
29730;SDS011;16639;51.488;0.152;2023-03-31T17:14:04;1.48;;;1.10;;
29730;SDS011;16639;51.488;0.152;2023-03-31T17:16:31;1.42;;;1.33;;
29730;SDS011;16639;51.488;0.152;2023-03-31T17:19:13;1.40;;;1.30;;
29730;SDS011;16639;51.488;0.152;2023-03-31T17:21:42;3.85;;;1.60;;
29730;SDS011;16639;51.488;0.152;2023-03-31T17:24:11;3.00;;;1.23;;
29730;SDS011;16639;51.488;0.152;2023-03-31T17:26:38;1.92;;;1.33;;
29730;SDS011;16639;51.488;0.152;2023-03-31T17:29:06;2.22;;;1.33;;
29730;SDS011;16639;51.488;0.152;2023-03-31T17:31:33;2.33;;;1.42;;
29730;SDS011;16639;51.488;0.152;2023-03-31T17:34:01;3.70;;;1.65;;
29730;SDS011;16639;51.488;0.152;2023-03-31T17:36:28;2.17;;;1.75;;
29730;SDS011;16639;51.488;0.152;2023-03-31T17:38:56;4.63;;;1.75;;
29730;SDS011;16639;51.488;0.152;2023-03-31T17:41:26;5.65;;;2.25;;
29730;SDS011;16639;51.488;0.152;2023-03-31T17:43:55;3.90;;;1.73;;
29730;SDS011;16639;51.488;0.152;2023-03-31T17:46:23;4.63;;;1.67;;
29730;SDS011;16639;51.488;0.152;2023-03-31T17:48:51;2.63;;;1.75;;
29730;SDS011;16639;51.488;0.152;2023-03-31T17:51:21;1.77;;;1.40;;
29730;SDS011;16639;51.488;0.152;2023-03-31T17:53:49;5.22;;;1.88;;
29730;SDS011;16639;51.488;0.152;2023-03-31T17:56:16;2.20;;;1.70;;
29730;SDS011;16639;51.488;0.152;2023-03-31T17:58:44;2.80;;;2.25;;
29730;SDS011;16639;51.488;0.152;2023-03-31T18:01:12;21.48;;;4.97;;
29730;SDS011;16639;51.488;0.152;2023-03-31T18:03:40;2.67;;;1.73;;
29730;SDS011;16639;51.488;0.152;2023-03-31T18:06:10;2.90;;;1.60;;
29730;SDS011;16639;51.488;0.152;2023-03-31T18:08:39;2.72;;;1.90;;